createdAt,value
2018-08-25T00:00:18.960Z,90.80
2018-08-25T00:02:47.958Z,90.90
2018-08-25T00:05:16.933Z,91.80
2018-08-25T00:07:46.213Z,91.60
2018-08-25T00:10:15.237Z,91.60
2018-08-25T00:12:44.253Z,91.80
2018-08-25T00:15:13.255Z,91.90
2018-08-25T00:17:42.155Z,91.90
2018-08-25T00:20:11.205Z,92.00
2018-08-25T00:22:40.113Z,91.90
2018-08-25T00:25:09.178Z,91.70
2018-08-25T00:27:38.018Z,91.50
2018-08-25T00:30:12.090Z,91.50
2018-08-25T00:32:41.123Z,92.00
2018-08-25T00:35:10.057Z,91.90
2018-08-25T00:37:39.148Z,92.00
2018-08-25T00:40:08.180Z,92.10
2018-08-25T00:42:37.130Z,91.70
2018-08-25T00:45:06.319Z,91.30
2018-08-25T00:47:35.376Z,91.50
2018-08-25T00:50:04.247Z,91.30
2018-08-25T00:52:33.701Z,91.40
2018-08-25T00:55:02.593Z,91.60
2018-08-25T00:57:31.643Z,91.70
2018-08-25T01:00:00.595Z,91.90
2018-08-25T01:02:29.619Z,91.90
2018-08-25T01:04:58.630Z,92.10
2018-08-25T01:07:27.635Z,92.50
2018-08-25T01:09:56.945Z,91.90
2018-08-25T01:12:26.280Z,91.90
2018-08-25T01:14:55.337Z,91.90
2018-08-25T01:17:24.670Z,91.90
2018-08-25T01:19:53.638Z,91.80
2018-08-25T01:22:22.618Z,92.10
2018-08-25T01:24:51.614Z,92.30
2018-08-25T01:27:20.720Z,92.00
2018-08-25T01:29:49.758Z,91.80
2018-08-25T01:32:18.695Z,92.20
2018-08-25T01:34:47.695Z,92.40
2018-08-25T01:37:16.675Z,92.20
2018-08-25T01:39:45.705Z,92.30
2018-08-25T01:42:14.678Z,92.20
2018-08-25T01:44:44.189Z,92.30
2018-08-25T01:47:13.199Z,92.60
2018-08-25T01:49:42.199Z,92.60
2018-08-25T01:52:11.144Z,92.70
2018-08-25T01:54:40.118Z,92.90
2018-08-25T01:57:08.948Z,93.00
2018-08-25T01:59:37.938Z,93.00
2018-08-25T02:02:07.740Z,93.10
2018-08-25T02:04:36.592Z,93.20
2018-08-25T02:07:05.493Z,93.20
2018-08-25T02:09:34.439Z,93.40
2018-08-25T02:12:03.331Z,93.30
2018-08-25T02:14:32.318Z,93.40
2018-08-25T02:17:01.475Z,93.40
2018-08-25T02:19:30.395Z,93.40
2018-08-25T02:21:59.337Z,93.50
2018-08-25T02:24:28.338Z,93.50
2018-08-25T02:26:57.312Z,93.50
2018-08-25T02:29:26.340Z,93.60
2018-08-25T02:31:55.384Z,93.60
2018-08-25T02:34:24.338Z,93.70
2018-08-25T02:36:53.385Z,93.50
2018-08-25T02:39:22.398Z,93.30
2018-08-25T02:41:51.355Z,93.30
2018-08-25T02:44:20.790Z,93.20
2018-08-25T02:46:49.718Z,93.00
2018-08-25T02:49:18.633Z,93.30
2018-08-25T02:51:47.626Z,92.50
2018-08-25T02:54:16.576Z,92.90
2018-08-25T02:56:45.598Z,92.30
2018-08-25T02:59:14.521Z,92.50
2018-08-25T03:01:43.522Z,92.30
2018-08-25T03:04:12.540Z,92.10
2018-08-25T03:06:41.500Z,92.30
2018-08-25T03:09:12.353Z,92.60
2018-08-25T03:11:41.309Z,92.50
2018-08-25T03:14:10.715Z,92.60
2018-08-25T03:16:39.730Z,92.30
2018-08-25T03:19:08.695Z,92.50
2018-08-25T03:21:37.663Z,92.70
2018-08-25T03:24:06.778Z,92.90
2018-08-25T03:26:36.917Z,92.50
2018-08-25T03:29:05.913Z,92.70
2018-08-25T03:31:34.824Z,92.40
2018-08-25T03:34:03.834Z,91.90
2018-08-25T03:36:32.716Z,92.10
2018-08-25T03:39:01.643Z,91.80
2018-08-25T03:41:30.559Z,91.70
2018-08-25T03:43:59.509Z,92.10
2018-08-25T03:46:28.488Z,91.90
2018-08-25T03:48:57.481Z,92.10
2018-08-25T03:51:26.478Z,92.40
2018-08-25T03:53:55.503Z,92.50
2018-08-25T03:56:24.436Z,92.70
2018-08-25T03:58:53.421Z,92.80
2018-08-25T04:01:22.351Z,91.70
2018-08-25T04:03:51.419Z,91.70
2018-08-25T04:06:20.342Z,92.10
2018-08-25T04:08:49.326Z,92.10
2018-08-25T04:11:19.159Z,92.30
2018-08-25T04:13:48.033Z,92.70
2018-08-25T04:16:16.976Z,92.90
2018-08-25T04:18:46.063Z,92.80
2018-08-25T04:21:15.379Z,92.80
2018-08-25T04:23:44.278Z,93.00
2018-08-25T04:26:13.190Z,92.70
2018-08-25T04:28:42.142Z,92.50
2018-08-25T04:31:11.194Z,92.50
2018-08-25T04:33:40.134Z,92.60
2018-08-25T04:36:09.653Z,92.50
2018-08-25T04:38:38.813Z,92.60
2018-08-25T04:41:07.820Z,92.40
2018-08-25T04:43:36.785Z,92.40
2018-08-25T04:46:06.036Z,92.60
2018-08-25T04:48:35.065Z,91.30
2018-08-25T04:51:04.351Z,91.60
2018-08-25T04:53:33.330Z,91.80
2018-08-25T04:56:02.653Z,91.20
2018-08-25T04:58:31.739Z,91.10
2018-08-25T05:01:00.713Z,91.20
2018-08-25T05:03:29.591Z,90.00
2018-08-25T05:05:58.698Z,90.40
2018-08-25T05:08:27.638Z,90.90
2018-08-25T05:10:56.899Z,90.60
2018-08-25T05:13:25.798Z,90.80
2018-08-25T05:15:54.723Z,91.00
2018-08-25T05:18:23.754Z,90.70
2018-08-25T05:20:52.690Z,90.60
2018-08-25T05:23:21.858Z,87.40
2018-08-25T05:25:50.920Z,83.70
2018-08-25T05:28:20.251Z,84.90
2018-08-25T05:30:49.184Z,85.90
2018-08-25T05:33:18.200Z,86.30
2018-08-25T05:35:47.238Z,87.40
2018-08-25T05:38:16.198Z,86.50
2018-08-25T05:40:45.162Z,87.00
2018-08-25T05:43:14.103Z,85.50
2018-08-25T05:45:43.158Z,85.50
2018-08-25T05:48:12.223Z,84.50
2018-08-25T05:50:41.146Z,82.00
2018-08-25T05:53:10.117Z,83.20
2018-08-25T05:55:39.057Z,83.80
2018-08-25T05:58:08.064Z,82.40
2018-08-25T06:00:37.046Z,83.30
2018-08-25T06:03:06.029Z,82.60
2018-08-25T06:05:35.066Z,82.40
2018-08-25T06:08:04.032Z,80.90
2018-08-25T06:10:33.050Z,82.10
2018-08-25T06:13:01.978Z,82.50
2018-08-25T06:15:30.985Z,81.60
2018-08-25T06:17:59.926Z,82.50
2018-08-25T06:20:28.898Z,83.00
2018-08-25T06:22:57.864Z,80.50
2018-08-25T06:25:27.584Z,80.70
2018-08-25T06:27:56.493Z,81.70
2018-08-25T06:30:25.370Z,80.40
2018-08-25T06:32:54.357Z,80.20
2018-08-25T06:35:23.256Z,80.40
2018-08-25T06:37:52.196Z,80.00
2018-08-25T06:40:21.157Z,80.40
2018-08-25T06:42:50.121Z,80.50
2018-08-25T06:45:18.944Z,79.80
2018-08-25T06:47:47.857Z,79.00
2018-08-25T06:50:16.884Z,76.60
2018-08-25T06:52:46.007Z,75.50
2018-08-25T06:55:14.895Z,74.50
2018-08-25T06:57:43.872Z,75.10
2018-08-25T07:00:12.791Z,75.70
2018-08-25T07:02:41.763Z,76.80
2018-08-25T07:05:10.667Z,76.90
2018-08-25T07:07:46.078Z,74.00
2018-08-25T07:10:15.068Z,75.60
2018-08-25T07:12:43.975Z,75.00
2018-08-25T07:15:13.019Z,75.60
2018-08-25T07:17:41.937Z,76.20
2018-08-25T07:20:10.977Z,72.50
2018-08-25T07:22:39.973Z,73.00
2018-08-25T07:25:08.938Z,71.70
2018-08-25T07:27:37.832Z,71.00
2018-08-25T07:30:06.809Z,68.20
2018-08-25T07:32:35.818Z,68.80
2018-08-25T07:35:04.784Z,65.80
2018-08-25T07:37:33.665Z,63.40
2018-08-25T07:40:02.606Z,64.30
2018-08-25T07:42:31.456Z,61.80
2018-08-25T07:45:00.380Z,62.10
2018-08-25T07:47:29.431Z,61.50
2018-08-25T07:49:58.410Z,63.00
2018-08-25T07:52:27.511Z,64.00
2018-08-25T07:54:56.585Z,61.80
2018-08-25T07:57:25.678Z,59.00
2018-08-25T07:59:54.696Z,58.70
2018-08-25T08:02:23.875Z,58.10
2018-08-25T08:04:53.197Z,58.00
2018-08-25T08:07:22.225Z,59.00
2018-08-25T08:09:51.577Z,58.40
2018-08-25T08:12:20.633Z,57.10
2018-08-25T08:14:49.715Z,54.90
2018-08-25T08:17:18.780Z,55.20
2018-08-25T08:19:47.869Z,54.60
2018-08-25T08:22:16.958Z,55.60
2018-08-25T08:24:45.977Z,54.30
2018-08-25T08:27:15.178Z,54.70
2018-08-25T08:29:44.639Z,56.60
2018-08-25T08:32:13.846Z,57.40
2018-08-25T08:34:42.863Z,56.70
2018-08-25T08:37:11.892Z,55.80
2018-08-25T08:39:41.119Z,56.40
2018-08-25T08:42:10.232Z,56.10
2018-08-25T08:44:39.238Z,55.30
2018-08-25T08:47:08.306Z,55.60
2018-08-25T08:49:46.456Z,55.90
2018-08-25T08:52:06.450Z,56.00
2018-08-25T08:54:35.525Z,55.80
2018-08-25T08:57:04.542Z,55.70
2018-08-25T08:59:33.595Z,56.40
2018-08-25T09:02:02.756Z,56.30
2018-08-25T09:04:31.821Z,57.40
2018-08-25T09:07:00.938Z,57.40
2018-08-25T09:09:30.027Z,58.60
2018-08-25T09:11:59.179Z,58.60
2018-08-25T09:14:28.233Z,58.40
2018-08-25T09:16:57.378Z,58.50
2018-08-25T09:19:27.819Z,58.50
2018-08-25T09:21:57.045Z,60.00
2018-08-25T09:24:26.170Z,59.80
2018-08-25T09:26:55.177Z,58.40
2018-08-25T09:29:24.319Z,60.50
2018-08-25T09:31:53.416Z,59.90
2018-08-25T09:34:22.595Z,61.40
2018-08-25T09:36:51.789Z,59.70
2018-08-25T09:39:20.667Z,59.20
2018-08-25T09:41:49.859Z,59.40
2018-08-25T09:44:18.891Z,59.50
2018-08-25T09:46:47.975Z,61.30
2018-08-25T09:49:17.072Z,60.70
2018-08-25T09:51:46.120Z,60.90
2018-08-25T09:54:15.250Z,61.20
2018-08-25T09:56:44.438Z,59.80
2018-08-25T09:59:13.547Z,60.60
2018-08-25T10:01:47.853Z,60.60
2018-08-25T10:04:16.869Z,61.20
2018-08-25T10:06:45.878Z,60.20
2018-08-25T10:09:14.821Z,59.50
2018-08-25T10:11:43.858Z,60.60
2018-08-25T10:14:12.996Z,60.10
2018-08-25T10:16:42.074Z,60.20
2018-08-25T10:19:11.082Z,61.00
2018-08-25T10:21:40.152Z,62.70
2018-08-25T10:24:09.715Z,62.80
2018-08-25T10:26:38.792Z,61.90
2018-08-25T10:29:10.938Z,61.40
2018-08-25T10:31:39.963Z,62.10
2018-08-25T10:34:08.956Z,64.20
2018-08-25T10:36:38.141Z,64.60
2018-08-25T10:39:10.049Z,64.30
2018-08-25T10:41:39.201Z,64.90
2018-08-25T10:44:08.822Z,64.90
2018-08-25T10:46:38.975Z,64.80
2018-08-25T10:49:08.188Z,65.90
2018-08-25T10:51:37.623Z,65.40
2018-08-25T10:54:07.332Z,64.00
2018-08-25T10:56:36.537Z,66.10
2018-08-25T10:59:05.644Z,68.30
2018-08-25T11:01:34.693Z,68.70
2018-08-25T11:04:03.877Z,69.70
2018-08-25T11:06:32.989Z,69.50
2018-08-25T11:09:02.053Z,69.70
2018-08-25T11:11:31.069Z,69.90
2018-08-25T11:14:00.067Z,71.40
2018-08-25T11:16:29.246Z,70.60
2018-08-25T11:18:58.337Z,69.10
2018-08-25T11:21:27.457Z,71.80
2018-08-25T11:23:56.549Z,71.70
2018-08-25T11:26:25.596Z,71.60
2018-08-25T11:28:54.595Z,72.70
2018-08-25T11:31:23.710Z,73.40
2018-08-25T11:33:52.674Z,73.90
2018-08-25T11:36:21.838Z,73.80
2018-08-25T11:38:51.305Z,74.70
2018-08-25T11:41:20.358Z,75.00
2018-08-25T11:43:49.511Z,74.30
2018-08-25T11:46:18.619Z,74.60
2018-08-25T11:48:47.693Z,73.40
2018-08-25T11:51:16.917Z,74.80
2018-08-25T11:53:46.019Z,74.50
2018-08-25T11:56:15.179Z,72.70
2018-08-25T11:58:44.216Z,73.10
2018-08-25T12:01:13.333Z,75.00
2018-08-25T12:03:42.376Z,74.40
2018-08-25T12:06:11.415Z,72.70
2018-08-25T12:08:40.510Z,72.10
2018-08-25T12:11:12.622Z,68.70
2018-08-25T12:13:41.662Z,69.80
2018-08-25T12:16:10.824Z,71.20
2018-08-25T12:18:39.848Z,71.00
2018-08-25T12:21:08.945Z,71.60
2018-08-25T12:23:38.050Z,71.20
2018-08-25T12:26:07.213Z,69.50
2018-08-25T12:28:36.275Z,67.10
2018-08-25T12:31:05.405Z,69.50
2018-08-25T12:33:34.639Z,68.10
2018-08-25T12:36:03.757Z,69.10
2018-08-25T12:38:32.744Z,69.00
2018-08-25T12:41:01.829Z,66.60
2018-08-25T12:43:30.867Z,68.30
2018-08-25T12:46:00.150Z,69.10
2018-08-25T12:48:29.278Z,66.70
2018-08-25T12:50:58.347Z,67.30
2018-08-25T12:53:27.189Z,68.00
2018-08-25T12:55:56.215Z,67.30
2018-08-25T12:58:25.283Z,67.90
2018-08-25T13:00:54.330Z,68.90
2018-08-25T13:03:23.510Z,67.90
2018-08-25T13:05:52.517Z,69.10
2018-08-25T13:08:21.530Z,70.00
2018-08-25T13:10:50.680Z,69.70
2018-08-25T13:13:19.721Z,71.50
2018-08-25T13:15:48.713Z,71.10
2018-08-25T13:18:17.723Z,71.80
2018-08-25T13:20:46.821Z,73.30
2018-08-25T13:23:15.786Z,71.60
2018-08-25T13:25:44.878Z,73.10
2018-08-25T13:28:13.887Z,75.30
2018-08-25T13:30:42.911Z,76.60
2018-08-25T13:33:11.834Z,76.50
2018-08-25T13:35:40.763Z,77.00
2018-08-25T13:38:09.907Z,78.70
2018-08-25T13:40:39.207Z,78.10
2018-08-25T13:43:08.205Z,78.00
2018-08-25T13:45:37.230Z,76.10
2018-08-25T13:48:06.480Z,78.10
2018-08-25T13:50:35.504Z,78.60
2018-08-25T13:53:04.598Z,78.20
2018-08-25T13:55:33.816Z,78.60
2018-08-25T13:58:02.905Z,80.10
2018-08-25T14:00:31.916Z,79.10
2018-08-25T14:03:00.914Z,80.70
2018-08-25T14:05:29.871Z,80.90
2018-08-25T14:07:58.882Z,81.80
2018-08-25T14:10:27.966Z,81.50
2018-08-25T14:12:57.054Z,81.60
2018-08-25T14:15:26.175Z,79.40
2018-08-25T14:17:55.224Z,80.80
2018-08-25T14:20:24.266Z,80.50
2018-08-25T14:22:53.280Z,81.50
2018-08-25T14:25:22.153Z,81.80
2018-08-25T14:27:51.201Z,81.90
2018-08-25T14:30:20.176Z,79.90
2018-08-25T14:32:49.287Z,81.20
2018-08-25T14:35:18.313Z,78.70
2018-08-25T14:37:47.326Z,79.60
2018-08-25T14:40:16.323Z,78.40
2018-08-25T14:42:45.429Z,79.30
2018-08-25T14:45:14.406Z,78.50
2018-08-25T14:47:43.466Z,79.40
2018-08-25T14:50:12.461Z,78.20
2018-08-25T14:52:41.523Z,78.70
2018-08-25T14:55:10.538Z,79.20
2018-08-25T14:57:39.500Z,79.60
2018-08-25T15:00:08.406Z,80.00
2018-08-25T15:02:37.420Z,78.40
2018-08-25T15:05:11.807Z,77.30
2018-08-25T15:07:40.862Z,77.80
2018-08-25T15:10:09.859Z,78.80
2018-08-25T15:12:38.892Z,78.60
2018-08-25T15:15:08.031Z,79.20
2018-08-25T15:17:36.940Z,78.30
2018-08-25T15:20:06.034Z,79.60
2018-08-25T15:22:35.064Z,79.90
2018-08-25T15:25:04.158Z,79.40
2018-08-25T15:27:33.233Z,79.30
2018-08-25T15:30:02.327Z,79.50
2018-08-25T15:32:31.429Z,79.30
2018-08-25T15:35:00.430Z,79.70
2018-08-25T15:37:29.457Z,80.30
2018-08-25T15:40:04.968Z,79.20
2018-08-25T15:42:34.056Z,77.70
2018-08-25T15:45:03.210Z,77.40
2018-08-25T15:47:32.208Z,77.60
2018-08-25T15:50:01.132Z,77.50
2018-08-25T15:52:30.117Z,79.20
2018-08-25T15:54:59.207Z,79.30
2018-08-25T15:57:28.459Z,80.90
2018-08-25T15:59:57.454Z,83.50
2018-08-25T16:02:26.516Z,83.10
2018-08-25T16:04:55.622Z,81.90
2018-08-25T16:07:24.648Z,81.50
2018-08-25T16:09:53.930Z,81.80
2018-08-25T16:12:23.080Z,82.20
2018-08-25T16:14:52.091Z,83.90
2018-08-25T16:17:21.195Z,84.90
2018-08-25T16:19:50.379Z,83.50
2018-08-25T16:22:19.236Z,83.20
2018-08-25T16:24:48.278Z,83.60
2018-08-25T16:27:17.235Z,83.80
2018-08-25T16:29:46.145Z,84.20
2018-08-25T16:32:15.275Z,84.20
2018-08-25T16:34:44.405Z,84.80
2018-08-25T16:37:13.567Z,85.80
2018-08-25T16:39:42.740Z,85.10
2018-08-25T16:42:11.689Z,85.80
2018-08-25T16:44:41.231Z,86.60
2018-08-25T16:47:10.312Z,87.20
2018-08-25T16:49:39.365Z,87.90
2018-08-25T16:52:08.431Z,88.00
2018-08-25T16:54:37.487Z,88.20
2018-08-25T16:57:06.563Z,86.80
2018-08-25T16:59:35.658Z,84.10
2018-08-25T17:02:04.801Z,84.00
2018-08-25T17:04:33.687Z,82.80
2018-08-25T17:07:02.763Z,81.60
2018-08-25T17:09:31.882Z,80.40
2018-08-25T17:12:00.933Z,78.80
2018-08-25T17:14:29.998Z,79.90
2018-08-25T17:16:59.105Z,77.90
2018-08-25T17:19:28.270Z,76.00
2018-08-25T17:21:57.314Z,77.10
2018-08-25T17:24:26.353Z,76.40
2018-08-25T17:26:55.559Z,75.60
2018-08-25T17:29:24.498Z,76.00
2018-08-25T17:31:53.511Z,75.20
2018-08-25T17:34:22.627Z,75.60
2018-08-25T17:36:51.695Z,75.90
2018-08-25T17:39:20.710Z,75.00
2018-08-25T17:41:49.766Z,75.60
2018-08-25T17:44:18.854Z,74.60
2018-08-25T17:46:47.904Z,74.80
2018-08-25T17:49:19.288Z,73.60
2018-08-25T17:51:48.358Z,74.40
2018-08-25T17:54:17.444Z,72.90
2018-08-25T17:56:46.499Z,73.00
2018-08-25T17:59:15.427Z,72.50
2018-08-25T18:01:44.463Z,71.50
2018-08-25T18:04:13.446Z,70.70
2018-08-25T18:06:42.521Z,69.80
2018-08-25T18:09:11.548Z,70.80
2018-08-25T18:11:40.603Z,71.30
2018-08-25T18:14:09.716Z,69.80
2018-08-25T18:16:38.771Z,71.10
2018-08-25T18:19:07.877Z,71.60
2018-08-25T18:21:37.098Z,71.10
2018-08-25T18:24:06.138Z,72.40
2018-08-25T18:26:35.236Z,72.80
2018-08-25T18:29:04.313Z,72.60
2018-08-25T18:31:33.292Z,73.10
2018-08-25T18:34:02.388Z,72.50
2018-08-25T18:36:31.514Z,73.10
2018-08-25T18:39:00.575Z,73.50
2018-08-25T18:41:29.830Z,73.60
2018-08-25T18:43:59.045Z,73.50
2018-08-25T18:46:28.180Z,74.40
2018-08-25T18:48:57.360Z,73.90
2018-08-25T18:51:26.507Z,73.40
2018-08-25T18:53:55.575Z,73.80
2018-08-25T18:56:24.618Z,74.10
2018-08-25T18:58:53.778Z,74.40
2018-08-25T19:01:22.804Z,75.70
2018-08-25T19:03:52.103Z,75.00
2018-08-25T19:06:21.227Z,75.40
2018-08-25T19:08:50.278Z,75.00
2018-08-25T19:11:19.210Z,75.00
2018-08-25T19:13:48.245Z,75.20
2018-08-25T19:16:17.399Z,74.10
2018-08-25T19:18:46.345Z,75.30
2018-08-25T19:21:15.780Z,75.10
2018-08-25T19:23:44.851Z,74.90
2018-08-25T19:26:13.974Z,74.50
2018-08-25T19:28:42.943Z,75.20
2018-08-25T19:31:12.012Z,75.20
2018-08-25T19:33:41.143Z,75.20
2018-08-25T19:36:10.179Z,75.50
2018-08-25T19:38:39.345Z,75.50
2018-08-25T19:41:09.267Z,75.70
2018-08-25T19:43:38.402Z,75.30
2018-08-25T19:46:07.514Z,75.30
2018-08-25T19:48:36.740Z,76.10
2018-08-25T19:51:05.886Z,76.10
2018-08-25T19:53:34.876Z,75.30
2018-08-25T19:56:03.969Z,75.80
2018-08-25T19:58:33.078Z,76.10
2018-08-25T20:01:02.131Z,76.70
2018-08-25T20:03:31.338Z,77.20
2018-08-25T20:06:00.418Z,77.10
2018-08-25T20:08:29.439Z,77.50
2018-08-25T20:10:58.442Z,77.80
2018-08-25T20:13:27.557Z,78.20
2018-08-25T20:15:56.538Z,78.70
2018-08-25T20:18:25.495Z,78.10
2018-08-25T20:20:54.592Z,78.20
2018-08-25T20:23:23.695Z,78.30
2018-08-25T20:25:52.756Z,78.50
2018-08-25T20:28:21.852Z,78.40
2018-08-25T20:30:51.043Z,79.10
2018-08-25T20:33:20.199Z,78.80
2018-08-25T20:35:49.209Z,78.80
2018-08-25T20:38:18.277Z,80.00
2018-08-25T20:40:47.178Z,80.50
2018-08-25T20:43:16.122Z,80.60
2018-08-25T20:45:45.192Z,80.90
2018-08-25T20:48:14.221Z,82.10
2018-08-25T20:50:43.451Z,82.60
2018-08-25T20:53:12.632Z,83.70
2018-08-25T20:55:41.565Z,84.20
2018-08-25T20:58:10.706Z,84.30
2018-08-25T21:00:39.744Z,84.90
2018-08-25T21:03:08.845Z,85.20
2018-08-25T21:05:37.809Z,85.40
2018-08-25T21:08:06.717Z,85.80
2018-08-25T21:10:35.803Z,85.70
2018-08-25T21:13:04.910Z,86.00
2018-08-25T21:15:33.959Z,86.60
2018-08-25T21:18:02.979Z,86.60
2018-08-25T21:20:32.164Z,87.30
2018-08-25T21:23:01.272Z,87.60
2018-08-25T21:25:30.320Z,88.70
2018-08-25T21:27:59.337Z,87.80
2018-08-25T21:30:28.443Z,87.50
2018-08-25T21:32:57.462Z,87.60
2018-08-25T21:35:26.508Z,87.90
2018-08-25T21:37:55.558Z,87.30
2018-08-25T21:40:24.673Z,88.00
2018-08-25T21:42:53.661Z,86.80
2018-08-25T21:45:22.558Z,86.80
2018-08-25T21:47:51.578Z,86.30
2018-08-25T21:50:20.535Z,85.80
2018-08-25T21:52:49.533Z,85.20
2018-08-25T21:55:18.538Z,85.10
2018-08-25T21:57:47.513Z,85.50
2018-08-25T22:00:16.530Z,84.70
2018-08-25T22:02:45.519Z,84.30
2018-08-25T22:05:14.598Z,84.80
2018-08-25T22:07:43.530Z,84.40
2018-08-25T22:10:12.449Z,86.30
2018-08-25T22:12:41.353Z,86.10
2018-08-25T22:15:10.277Z,87.10
2018-08-25T22:17:40.178Z,87.40
2018-08-25T22:20:09.166Z,87.70
2018-08-25T22:22:38.170Z,88.60
2018-08-25T22:25:07.343Z,89.30
2018-08-25T22:27:36.371Z,89.80
2018-08-25T22:30:05.679Z,90.30
2018-08-25T22:32:34.713Z,90.30
2018-08-25T22:35:03.729Z,90.30
2018-08-25T22:37:38.998Z,90.90
2018-08-25T22:40:07.947Z,90.80
2018-08-25T22:42:36.931Z,90.80
2018-08-25T22:45:05.981Z,91.30
2018-08-25T22:47:34.897Z,91.50
2018-08-25T22:50:03.810Z,91.60
2018-08-25T22:52:38.128Z,91.50
2018-08-25T22:55:07.190Z,91.60
2018-08-25T22:57:36.264Z,91.50
2018-08-25T23:00:05.338Z,91.70
2018-08-25T23:02:34.248Z,91.60
2018-08-25T23:05:05.281Z,91.90
2018-08-25T23:07:34.677Z,92.00
2018-08-25T23:10:03.807Z,91.90
2018-08-25T23:12:33.306Z,92.00
2018-08-25T23:15:02.246Z,92.20
2018-08-25T23:17:31.231Z,92.40
2018-08-25T23:20:00.353Z,92.50
2018-08-25T23:22:29.316Z,92.50
2018-08-25T23:24:58.330Z,92.40
2018-08-25T23:27:27.289Z,92.50
2018-08-25T23:29:56.306Z,92.40
2018-08-25T23:32:25.260Z,92.40
2018-08-25T23:34:54.214Z,92.00
2018-08-25T23:37:23.127Z,92.40
2018-08-25T23:39:52.150Z,92.40
2018-08-25T23:42:21.198Z,92.20
2018-08-25T23:44:50.274Z,92.20
2018-08-25T23:47:19.229Z,92.40
2018-08-25T23:49:48.241Z,92.50
2018-08-25T23:52:17.113Z,92.40
2018-08-25T23:54:46.052Z,92.50
2018-08-25T23:57:14.930Z,92.60
2018-08-25T23:59:44.005Z,92.70
